Portada
METAR-TAF:

METAR-TAF

Aeropuertos :

Whiteside County Airport (Jos. H. Bittorf Field)

Sterling / Rock Falls, Illinois, Estados Unidos

latitud: 41-45N, longitud: 089-40W, altitud: 197 m

Observación

El informe se hizo hace 56 minutos, a las 19:56 UTC
Viento 4 kt con dirección variable
Temperatura 32°C
Humedad 46%
Presión 1022 hPa
Visibilidad: 16.1 km
Cielo despejado

METAR: KSQI 191956Z AUTO VRB04KT 10SM CLR 32/19 A3018 RMK AO2 SLP083 T03220189 PNO $

Hora: 15:52 (20:52 UTC)


TAF: falta

Observaciones y pronósticos meteorológicos de más de 4000 aeropuertos (mensajes METAR y TAF).

Los puntos amarillos y rojos representan las estaciones disponibles.

Ponga el ratón en el punto deseado para ver el nombre de la estación.

Haga clic para ver las observaciones y los pronósticos meteorológicos.

Para cambiar el mapa : haga clic en los botones verdes con una cruz de color negro para hacer un zoom, en el botón verde con un guión para alejar o en las flechas verdes para mapas adyacentes.


METAR-TAF: